Time;durP1;ratioP1;P1;durP2;ratioP2;P2;SDS_P1;SDS_P2;PMS_P1;PMS_P2;Temp;Humidity;BMP_temperature;BMP_pressure;BME280_temperature;BME280_humidity;BME280_pressure;Samples;Min_cycle;Max_cycle;Signal;HPM_P1;HPM_P2
2024/02/19 00:00:48;;;;;;;11.23;2.80;;;11.60;99.90;;;;;;5074050;28;20396;-72
2024/02/19 00:03:14;;;;;;;7.27;3.10;;;11.60;99.90;;;;;;5074105;28;20204;-72
2024/02/19 00:05:41;;;;;;;8.33;3.07;;;11.50;99.90;;;;;;5074221;28;20407;-72
2024/02/19 00:08:07;;;;;;;4.10;2.90;;;11.50;99.90;;;;;;5074074;28;20441;-72
2024/02/19 00:10:34;;;;;;;5.33;3.50;;;11.40;99.90;;;;;;5073602;28;20918;-72
2024/02/19 00:13:00;;;;;;;8.00;3.53;;;11.40;99.90;;;;;;5073786;28;20400;-72
2024/02/19 00:15:26;;;;;;;13.53;4.30;;;11.30;99.90;;;;;;5073790;28;20966;-72
2024/02/19 00:17:51;;;;;;;6.27;3.10;;;11.30;99.90;;;;;;5073849;28;20478;-72
2024/02/19 00:20:17;;;;;;;5.13;3.20;;;11.20;99.90;;;;;;5073676;28;20404;-72
2024/02/19 00:22:42;;;;;;;3.90;2.97;;;11.10;99.90;;;;;;5073692;28;20158;-72
2024/02/19 00:25:08;;;;;;;5.40;2.57;;;11.10;99.90;;;;;;5073936;28;20185;-71
2024/02/19 00:27:34;;;;;;;6.80;3.30;;;11.10;99.90;;;;;;5073688;28;20212;-72
2024/02/19 00:29:59;;;;;;;5.40;3.20;;;11.00;99.90;;;;;;5073426;28;20169;-72
2024/02/19 00:32:25;;;;;;;7.87;3.80;;;10.90;99.90;;;;;;5073599;28;20223;-72
2024/02/19 00:34:51;;;;;;;6.40;3.60;;;10.90;99.90;;;;;;5073360;28;20237;-72
2024/02/19 00:37:17;;;;;;;8.90;4.37;;;10.90;99.90;;;;;;5072927;28;20704;-72
2024/02/19 00:39:42;;;;;;;6.17;4.10;;;11.00;99.90;;;;;;5072261;28;20420;-72
2024/02/19 00:42:08;;;;;;;5.93;4.40;;;11.00;99.90;;;;;;5073135;28;20162;-72
2024/02/19 00:44:34;;;;;;;12.93;4.50;;;11.00;99.90;;;;;;5073253;28;20184;-72
2024/02/19 00:47:00;;;;;;;10.43;3.70;;;11.00;99.90;;;;;;5073072;28;20794;-71
2024/02/19 00:49:26;;;;;;;5.90;3.63;;;11.00;99.90;;;;;;5073086;28;20174;-72
2024/02/19 00:51:52;;;;;;;5.70;2.83;;;11.10;99.90;;;;;;5072911;28;20553;-72
2024/02/19 00:54:17;;;;;;;5.90;3.77;;;11.10;99.90;;;;;;5073193;28;20170;-72
2024/02/19 00:56:43;;;;;;;6.53;3.40;;;11.00;99.90;;;;;;5071698;28;20460;-72
2024/02/19 00:59:08;;;;;;;10.00;3.03;;;11.00;99.90;;;;;;5073111;28;20158;-72
2024/02/19 01:01:34;;;;;;;8.43;3.50;;;11.10;99.90;;;;;;5072609;28;20672;-72
2024/02/19 01:03:59;;;;;;;7.70;2.83;;;11.10;99.90;;;;;;5072859;28;20201;-72
2024/02/19 01:06:25;;;;;;;3.53;2.13;;;11.10;99.90;;;;;;5072724;28;20193;-72
2024/02/19 01:08:51;;;;;;;2.90;2.10;;;11.10;99.90;;;;;;5072407;28;20170;-72
2024/02/19 01:11:16;;;;;;;11.33;3.00;;;11.10;99.90;;;;;;5072611;28;20197;-72
2024/02/19 01:13:42;;;;;;;6.20;3.03;;;11.10;99.90;;;;;;5072614;28;20170;-72
2024/02/19 01:16:08;;;;;;;11.63;2.90;;;11.10;99.90;;;;;;5072632;28;20194;-72
2024/02/19 01:18:34;;;;;;;3.13;2.40;;;11.10;99.90;;;;;;5072739;28;20159;-72
2024/02/19 01:21:00;;;;;;;9.93;2.97;;;11.10;99.90;;;;;;5072477;28;20804;-72
2024/02/19 01:23:26;;;;;;;7.30;3.33;;;11.10;99.90;;;;;;5072617;28;20443;-71
2024/02/19 01:25:52;;;;;;;5.17;3.07;;;11.10;99.90;;;;;;5072598;28;20198;-72
2024/02/19 01:28:18;;;;;;;12.03;3.43;;;11.10;99.90;;;;;;5072506;28;20466;-72
2024/02/19 01:30:44;;;;;;;5.63;2.70;;;11.10;99.90;;;;;;5072149;28;20404;-72
2024/02/19 01:33:09;;;;;;;3.80;2.57;;;11.10;99.90;;;;;;5072304;28;20408;-71
2024/02/19 01:35:35;;;;;;;11.53;3.80;;;11.10;99.90;;;;;;5072271;28;20845;-72
2024/02/19 01:38:01;;;;;;;11.50;2.30;;;11.20;99.90;;;;;;5072182;28;20209;-72
2024/02/19 01:40:27;;;;;;;6.10;3.10;;;11.10;99.90;;;;;;5071899;28;20182;-71
2024/02/19 01:43:05;;;;;;;10.77;4.20;;;11.10;99.90;;;;;;5072087;28;20416;-71
2024/02/19 01:45:31;;;;;;;4.37;2.60;;;11.10;99.90;;;;;;5072112;28;20408;-72
2024/02/19 01:47:59;;;;;;;8.13;4.07;;;11.10;99.90;;;;;;5072081;28;20435;-72
2024/02/19 01:50:27;;;;;;;9.33;3.07;;;11.00;99.90;;;;;;5071993;28;20946;-72
2024/02/19 01:52:56;;;;;;;8.00;3.33;;;11.00;99.90;;;;;;5072018;28;20421;-72
2024/02/19 01:55:22;;;;;;;10.00;3.63;;;11.00;99.90;;;;;;5070512;28;20459;-72
2024/02/19 01:57:49;;;;;;;7.87;4.37;;;11.00;99.90;;;;;;5072136;28;20539;-72
2024/02/19 02:00:17;;;;;;;4.80;3.23;;;11.00;99.90;;;;;;5071753;28;20425;-72
2024/02/19 02:02:43;;;;;;;12.00;3.97;;;11.00;99.90;;;;;;5071563;28;20402;-71
2024/02/19 02:05:11;;;;;;;9.30;2.60;;;11.00;99.90;;;;;;5072129;28;20484;-72
2024/02/19 02:07:36;;;;;;;4.30;2.37;;;11.10;99.90;;;;;;5071911;28;20600;-72
2024/02/19 02:10:06;;;;;;;7.70;2.63;;;11.10;99.90;;;;;;5071621;28;20404;-71
2024/02/19 02:12:32;;;;;;;5.13;2.17;;;11.10;99.90;;;;;;5071882;28;20167;-71
2024/02/19 02:14:57;;;;;;;4.90;2.50;;;11.20;99.90;;;;;;5071849;28;20409;-71
2024/02/19 02:17:23;;;;;;;8.10;3.17;;;11.20;99.90;;;;;;5071689;28;20209;-71
2024/02/19 02:19:48;;;;;;;2.87;2.50;;;11.20;99.90;;;;;;5070856;28;20170;-72
2024/02/19 02:22:14;;;;;;;4.73;3.03;;;11.20;99.90;;;;;;5071661;28;20253;-72
2024/02/19 02:24:40;;;;;;;3.57;2.10;;;11.10;99.90;;;;;;5071745;28;20162;-71
2024/02/19 02:27:05;;;;;;;6.00;2.27;;;11.10;99.90;;;;;;5071787;28;20207;-72
2024/02/19 02:29:32;;;;;;;4.27;2.33;;;11.10;99.90;;;;;;5071751;28;20178;-71
2024/02/19 02:31:57;;;;;;;4.37;2.07;;;11.10;99.90;;;;;;5071333;28;20204;-71
2024/02/19 02:34:23;;;;;;;5.70;2.10;;;11.00;99.90;;;;;;5071696;28;20452;-71
2024/02/19 02:36:49;;;;;;;3.83;2.40;;;11.10;99.90;;;;;;5071333;28;20209;-71
2024/02/19 02:39:14;;;;;;;6.50;2.83;;;11.10;99.90;;;;;;5071888;28;20637;-71
2024/02/19 02:41:41;;;;;;;10.30;2.57;;;11.10;99.90;;;;;;5071359;28;20194;-72
2024/02/19 02:44:06;;;;;;;6.13;2.40;;;11.20;99.90;;;;;;5071574;28;20223;-72
2024/02/19 02:46:32;;;;;;;3.70;2.13;;;11.20;99.90;;;;;;5071449;28;20428;-71
2024/02/19 02:48:58;;;;;;;5.43;2.40;;;11.20;99.90;;;;;;5071571;28;20169;-72
2024/02/19 02:51:24;;;;;;;2.43;1.90;;;11.30;99.90;;;;;;5071594;28;20405;-72
2024/02/19 02:53:49;;;;;;;7.60;2.33;;;11.30;99.90;;;;;;5071547;28;20181;-72
2024/02/19 02:56:21;;;;;;;15.67;2.70;;;11.30;99.90;;;;;;5071365;28;20530;-71
2024/02/19 02:58:48;;;;;;;6.87;2.23;;;11.30;99.90;;;;;;5071415;28;20178;-71
2024/02/19 03:01:18;;;;;;;5.90;2.60;;;11.30;99.90;;;;;;5070843;28;20405;-72
2024/02/19 03:03:44;;;;;;;6.50;2.10;;;11.30;99.90;;;;;;5071418;28;21048;-72
2024/02/19 03:06:10;;;;;;;6.43;2.00;;;11.20;99.90;;;;;;5071260;28;20456;-71
2024/02/19 03:08:35;;;;;;;4.00;1.90;;;11.20;99.90;;;;;;5071351;28;20163;-71
2024/02/19 03:11:01;;;;;;;5.90;1.97;;;11.10;99.90;;;;;;5071120;28;20422;-71
2024/02/19 03:13:27;;;;;;;3.63;1.20;;;11.10;99.90;;;;;;5071216;28;20174;-71
2024/02/19 03:15:52;;;;;;;6.93;2.97;;;11.00;99.90;;;;;;5071145;28;20197;-71
2024/02/19 03:18:18;;;;;;;5.93;2.07;;;11.00;99.90;;;;;;5071310;28;20653;-71
2024/02/19 03:20:44;;;;;;;6.07;1.80;;;11.00;99.90;;;;;;5069593;28;20618;-71
2024/02/19 03:23:09;;;;;;;7.60;2.23;;;10.90;99.90;;;;;;5070745;28;20575;-71
2024/02/19 03:25:35;;;;;;;2.50;1.57;;;11.00;99.90;;;;;;5071235;28;20174;-72
2024/02/19 03:28:01;;;;;;;3.33;1.40;;;11.00;99.90;;;;;;5071146;28;20183;-71
2024/02/19 03:30:29;;;;;;;11.27;3.97;;;11.10;99.90;;;;;;5071518;28;20178;-71
2024/02/19 03:32:55;;;;;;;6.80;2.20;;;11.10;99.90;;;;;;5074106;28;20166;-71
2024/02/19 03:35:20;;;;;;;12.07;2.33;;;11.10;99.90;;;;;;5074588;28;20510;-71
2024/02/19 03:37:46;;;;;;;3.93;1.67;;;11.00;99.90;;;;;;5074045;28;20759;-71
2024/02/19 03:40:12;;;;;;;4.20;1.33;;;11.00;99.90;;;;;;5074852;28;20163;-71
2024/02/19 03:42:37;;;;;;;2.53;1.13;;;11.00;99.90;;;;;;5074548;28;20543;-71
2024/02/19 03:45:04;;;;;;;6.83;1.30;;;10.90;99.90;;;;;;5074597;28;20167;-71
2024/02/19 03:47:30;;;;;;;5.70;1.83;;;10.90;99.90;;;;;;5074412;28;20651;-72
2024/02/19 03:49:56;;;;;;;5.77;2.13;;;10.80;99.90;;;;;;5074250;28;20492;-72
2024/02/19 03:52:21;;;;;;;6.97;3.17;;;10.80;99.90;;;;;;5074292;28;20182;-71
2024/02/19 03:54:47;;;;;;;7.97;4.17;;;10.80;99.90;;;;;;5074384;28;20645;-71
2024/02/19 03:57:12;;;;;;;3.87;2.23;;;10.70;99.90;;;;;;5074554;28;20205;-71
2024/02/19 03:59:38;;;;;;;5.87;2.00;;;10.70;99.90;;;;;;5074315;28;20165;-71
2024/02/19 04:02:04;;;;;;;9.90;4.67;;;10.70;99.90;;;;;;5072725;28;20265;-71
2024/02/19 04:04:29;;;;;;;7.97;4.07;;;10.60;99.90;;;;;;5074174;28;20224;-71
2024/02/19 04:06:55;;;;;;;1.90;1.50;;;10.50;99.90;;;;;;5073786;28;20688;-71
2024/02/19 04:09:21;;;;;;;5.90;2.20;;;10.50;99.90;;;;;;5074169;28;20239;-72
2024/02/19 04:11:46;;;;;;;7.30;2.73;;;10.50;99.90;;;;;;5073766;28;20189;-71
2024/02/19 04:14:12;;;;;;;9.83;2.60;;;10.50;99.90;;;;;;5074047;28;20914;-71
2024/02/19 04:16:37;;;;;;;10.47;2.17;;;10.40;99.90;;;;;;5073865;28;20275;-71
2024/02/19 04:19:03;;;;;;;11.43;2.17;;;10.40;99.90;;;;;;5073885;28;20177;-71
2024/02/19 04:21:28;;;;;;;3.60;2.00;;;10.30;99.90;;;;;;5073704;28;20162;-71
2024/02/19 04:23:55;;;;;;;3.97;1.60;;;10.30;99.90;;;;;;5073144;28;20207;-71
2024/02/19 04:26:20;;;;;;;3.43;1.73;;;10.20;99.90;;;;;;5073504;28;20189;-71
2024/02/19 04:28:46;;;;;;;6.87;1.90;;;10.10;99.90;;;;;;5073397;28;20416;-71
2024/02/19 04:31:12;;;;;;;10.57;2.53;;;10.10;99.90;;;;;;5073357;28;20710;-71
2024/02/19 04:33:37;;;;;;;7.50;2.27;;;10.00;99.90;;;;;;5073506;28;20541;-71
2024/02/19 04:36:03;;;;;;;5.37;1.93;;;9.90;99.90;;;;;;5073569;28;20214;-71
2024/02/19 04:38:28;;;;;;;6.37;1.50;;;9.90;99.90;;;;;;5073236;28;20181;-71
2024/02/19 04:40:54;;;;;;;5.63;2.53;;;9.90;99.90;;;;;;5073223;28;20170;-71
2024/02/19 04:43:19;;;;;;;7.63;2.27;;;9.80;99.90;;;;;;5072815;28;20580;-72
2024/02/19 04:45:45;;;;;;;7.33;1.93;;;9.80;99.90;;;;;;5072987;28;20212;-71
2024/02/19 04:48:10;;;;;;;3.07;1.90;;;9.90;99.90;;;;;;5073179;28;20249;-71
2024/02/19 04:50:36;;;;;;;3.40;1.50;;;9.80;99.90;;;;;;5073022;28;20687;-71
2024/02/19 04:53:01;;;;;;;3.33;1.53;;;9.80;99.90;;;;;;5073103;28;20190;-71
2024/02/19 04:55:27;;;;;;;4.47;1.37;;;9.70;99.90;;;;;;5073142;28;20200;-71
2024/02/19 04:57:52;;;;;;;3.53;1.73;;;9.80;99.90;;;;;;5071860;28;20194;-71
2024/02/19 05:00:18;;;;;;;7.77;1.73;;;9.80;99.90;;;;;;5072838;28;20177;-71
2024/02/19 05:02:44;;;;;;;2.70;1.43;;;9.80;99.90;;;;;;5073023;28;20455;-71
2024/02/19 05:05:09;;;;;;;2.90;1.90;;;9.80;99.90;;;;;;5072836;28;20167;-71
2024/02/19 05:07:35;;;;;;;3.73;1.37;;;9.90;99.90;;;;;;5072517;28;20239;-71
2024/02/19 05:10:01;;;;;;;4.43;1.30;;;10.00;99.90;;;;;;5072649;28;20192;-71
2024/02/19 05:12:26;;;;;;;4.60;1.57;;;9.90;99.90;;;;;;5072649;28;20166;-71
2024/02/19 05:14:52;;;;;;;4.90;1.20;;;9.90;99.90;;;;;;5072789;28;20162;-72
2024/02/19 05:17:17;;;;;;;11.63;1.87;;;10.00;99.90;;;;;;5072611;28;20198;-71
2024/02/19 05:19:45;;;;;;;5.93;2.33;;;10.00;99.90;;;;;;5072536;28;20689;-71
2024/02/19 05:22:10;;;;;;;10.87;3.27;;;10.00;99.90;;;;;;5072406;28;20186;-71
2024/02/19 05:24:36;;;;;;;3.33;1.50;;;10.00;99.90;;;;;;5072653;28;20513;-71
2024/02/19 05:27:01;;;;;;;4.67;1.77;;;10.00;99.90;;;;;;5072387;28;20687;-71
2024/02/19 05:29:27;;;;;;;4.97;1.43;;;10.00;99.90;;;;;;5071327;28;20177;-71
2024/02/19 05:31:52;;;;;;;10.90;1.23;;;10.00;99.90;;;;;;5072182;28;20170;-71
2024/02/19 05:34:18;;;;;;;6.30;1.40;;;10.00;99.90;;;;;;5072599;28;20247;-71
2024/02/19 05:36:43;;;;;;;5.67;1.40;;;10.00;99.90;;;;;;5071988;28;20204;-71
2024/02/19 05:39:10;;;;;;;6.03;1.37;;;10.00;99.90;;;;;;5072392;28;20560;-71
2024/02/19 05:41:37;;;;;;;5.27;1.80;;;9.90;99.90;;;;;;5072253;28;20521;-71
2024/02/19 05:44:03;;;;;;;8.33;1.50;;;9.80;99.90;;;;;;5072264;28;20692;-71
2024/02/19 05:46:30;;;;;;;4.30;1.40;;;9.90;99.90;;;;;;5072117;28;20439;-71
2024/02/19 05:48:55;;;;;;;10.23;1.47;;;9.90;99.90;;;;;;5072456;28;20194;-71
2024/02/19 05:51:22;;;;;;;4.77;1.97;;;9.80;99.90;;;;;;5071899;28;20434;-72
2024/02/19 05:53:49;;;;;;;6.73;1.93;;;9.70;99.90;;;;;;5072166;28;20190;-71
2024/02/19 05:56:14;;;;;;;2.63;1.40;;;9.70;99.90;;;;;;5072007;28;20486;-72
2024/02/19 05:58:40;;;;;;;2.80;1.40;;;9.70;99.90;;;;;;5072123;28;20432;-71
2024/02/19 06:01:06;;;;;;;9.90;1.80;;;9.70;99.90;;;;;;5070498;28;20632;-71
2024/02/19 06:03:34;;;;;;;4.30;1.60;;;9.70;99.90;;;;;;5071975;28;20444;-71
2024/02/19 06:06:00;;;;;;;4.90;2.30;;;9.70;99.90;;;;;;5071951;28;20169;-72
2024/02/19 06:08:25;;;;;;;20.60;6.50;;;9.70;99.90;;;;;;5072002;28;20400;-71
2024/02/19 06:10:51;;;;;;;11.83;1.80;;;9.70;99.90;;;;;;5071759;28;20668;-71
2024/02/19 06:13:16;;;;;;;2.37;1.60;;;9.60;99.90;;;;;;5071916;28;20195;-72
2024/02/19 06:15:45;;;;;;;8.53;2.20;;;9.70;99.90;;;;;;5070480;28;20221;-71
2024/02/19 06:18:10;;;;;;;8.53;2.00;;;9.70;99.90;;;;;;5071916;28;20219;-71
2024/02/19 06:20:36;;;;;;;4.67;1.17;;;9.60;99.90;;;;;;5071666;28;20424;-72
2024/02/19 06:23:03;;;;;;;2.30;1.60;;;9.70;99.90;;;;;;5071847;28;20158;-71
2024/02/19 06:25:28;;;;;;;6.80;2.27;;;9.80;99.90;;;;;;5071819;28;20408;-72
2024/02/19 06:27:54;;;;;;;8.13;2.60;;;9.90;99.90;;;;;;5071638;28;20412;-72
2024/02/19 06:30:19;;;;;;;2.40;1.53;;;9.90;99.90;;;;;;5071488;28;20166;-72
2024/02/19 06:32:45;;;;;;;7.73;2.37;;;9.90;99.90;;;;;;5071811;28;20254;-71
2024/02/19 06:35:10;;;;;;;9.03;2.20;;;10.00;99.90;;;;;;5071652;28;20170;-71
2024/02/19 06:37:36;;;;;;;4.00;1.57;;;10.00;99.90;;;;;;5071601;28;20182;-72
2024/02/19 06:40:01;;;;;;;4.37;2.30;;;9.90;99.90;;;;;;5071456;28;20240;-71
2024/02/19 06:42:27;;;;;;;4.53;1.90;;;10.00;99.90;;;;;;5071566;28;20162;-71
2024/02/19 06:44:52;;;;;;;3.40;1.70;;;10.00;99.90;;;;;;5070274;28;20166;-72
2024/02/19 06:47:18;;;;;;;3.13;1.47;;;10.10;99.90;;;;;;5071474;28;20554;-72
2024/02/19 06:49:44;;;;;;;8.27;2.10;;;10.10;99.90;;;;;;5071518;28;20173;-72
2024/02/19 06:52:09;;;;;;;6.73;1.53;;;10.20;99.90;;;;;;5071117;28;20228;-71
2024/02/19 06:54:35;;;;;;;5.83;2.00;;;10.20;99.90;;;;;;5071517;28;20174;-72
2024/02/19 06:57:00;;;;;;;4.50;1.70;;;10.20;99.90;;;;;;5071267;28;20224;-72
2024/02/19 06:59:26;;;;;;;3.20;2.03;;;10.30;99.90;;;;;;5071431;28;20219;-71
2024/02/19 07:01:51;;;;;;;3.73;1.60;;;10.30;99.90;;;;;;5069940;28;20657;-71
2024/02/19 07:04:18;;;;;;;5.07;2.10;;;10.40;99.90;;;;;;5071447;28;20165;-71
2024/02/19 07:06:44;;;;;;;8.20;1.77;;;10.40;99.90;;;;;;5074477;28;20273;-71
2024/02/19 07:09:10;;;;;;;5.33;1.60;;;10.40;99.90;;;;;;5075580;28;20446;-71
2024/02/19 07:11:35;;;;;;;6.03;1.67;;;10.50;99.90;;;;;;5075406;28;20162;-71
2024/02/19 07:14:01;;;;;;;3.30;2.37;;;10.50;99.90;;;;;;5075156;28;20177;-72
2024/02/19 07:16:26;;;;;;;8.70;2.03;;;10.50;99.90;;;;;;5074978;28;20727;-72
2024/02/19 07:18:52;;;;;;;14.53;3.40;;;10.60;99.90;;;;;;5075049;28;20161;-71
2024/02/19 07:21:17;;;;;;;2.40;1.87;;;10.60;99.90;;;;;;5073671;28;20668;-72
2024/02/19 07:23:43;;;;;;;4.33;2.20;;;10.60;99.90;;;;;;5074993;28;20189;-72
2024/02/19 07:26:09;;;;;;;6.00;1.90;;;10.60;99.90;;;;;;5074811;28;20668;-72
2024/02/19 07:28:34;;;;;;;8.77;2.40;;;10.70;99.90;;;;;;5073626;28;20278;-72
2024/02/19 07:31:00;;;;;;;7.13;1.67;;;10.70;99.90;;;;;;5074691;28;20205;-72
2024/02/19 07:33:27;;;;;;;8.70;1.67;;;10.60;99.90;;;;;;5074826;28;20253;-72
2024/02/19 07:35:53;;;;;;;4.20;2.00;;;10.60;99.90;;;;;;5074634;28;20196;-72
2024/02/19 07:38:20;;;;;;;4.53;1.60;;;10.70;99.90;;;;;;5074680;28;20401;-72
2024/02/19 07:40:45;;;;;;;5.10;2.00;;;10.60;99.90;;;;;;5074397;28;20577;-72
2024/02/19 07:43:12;;;;;;;4.17;2.00;;;10.60;99.90;;;;;;5074143;28;20487;-72
2024/02/19 07:45:38;;;;;;;8.20;2.30;;;10.50;99.90;;;;;;5074530;28;20219;-72
2024/02/19 07:48:06;;;;;;;3.03;1.73;;;10.50;99.90;;;;;;5074651;28;20979;-71
2024/02/19 07:50:32;;;;;;;5.53;2.40;;;10.50;99.90;;;;;;5074319;28;20895;-72
2024/02/19 07:52:58;;;;;;;6.30;2.13;;;10.60;99.90;;;;;;5074352;28;20428;-71
2024/02/19 07:55:25;;;;;;;5.53;2.20;;;10.60;99.90;;;;;;5074361;28;20400;-72
2024/02/19 07:57:50;;;;;;;6.50;2.40;;;10.60;99.90;;;;;;5074284;28;20288;-72
2024/02/19 08:00:17;;;;;;;4.73;1.83;;;10.60;99.90;;;;;;5074122;28;20397;-72
2024/02/19 08:02:42;;;;;;;6.73;2.27;;;10.60;99.90;;;;;;5074174;28;20167;-72
2024/02/19 08:05:08;;;;;;;10.13;2.93;;;10.60;99.90;;;;;;5074134;28;20454;-72
2024/02/19 08:07:33;;;;;;;23.33;3.17;;;10.50;99.90;;;;;;5074148;28;20194;-72
2024/02/19 08:09:59;;;;;;;6.20;1.63;;;10.60;99.90;;;;;;5073787;28;20584;-72
2024/02/19 08:12:24;;;;;;;2.97;1.50;;;10.50;99.90;;;;;;5074053;28;20205;-72
2024/02/19 08:14:50;;;;;;;3.77;1.53;;;10.50;99.90;;;;;;5073748;28;20173;-67
2024/02/19 08:17:17;;;;;;;4.33;2.07;;;10.60;99.90;;;;;;5072648;28;20247;-68
2024/02/19 08:19:43;;;;;;;6.17;2.20;;;10.80;99.90;;;;;;5073955;28;20396;-67
2024/02/19 08:22:10;;;;;;;6.13;2.20;;;10.80;99.90;;;;;;5073194;28;20412;-68
2024/02/19 08:24:38;;;;;;;10.70;2.40;;;11.00;99.90;;;;;;5073894;28;20162;-67
2024/02/19 08:27:04;;;;;;;7.00;3.27;;;11.00;99.90;;;;;;5073651;28;20448;-67
2024/02/19 08:29:29;;;;;;;7.73;2.90;;;11.10;99.90;;;;;;5073802;28;20932;-67
2024/02/19 08:31:55;;;;;;;5.10;2.30;;;11.10;99.90;;;;;;5073462;28;20396;-68
2024/02/19 08:34:22;;;;;;;9.33;3.33;;;11.20;99.90;;;;;;5073654;28;20174;-68
2024/02/19 08:36:47;;;;;;;16.07;3.20;;;11.40;99.90;;;;;;5073429;28;20460;-67
2024/02/19 08:39:13;;;;;;;10.77;3.47;;;11.40;99.90;;;;;;5073402;28;20815;-67
2024/02/19 08:41:38;;;;;;;6.93;2.83;;;11.40;99.90;;;;;;5073204;28;20166;-67
2024/02/19 08:44:04;;;;;;;6.40;2.53;;;11.20;99.90;;;;;;5073392;28;20158;-67
2024/02/19 08:46:30;;;;;;;13.33;2.70;;;11.20;99.90;;;;;;5073381;28;20186;-67
2024/02/19 08:48:56;;;;;;;8.40;2.63;;;11.20;99.90;;;;;;5073703;28;20545;-67
2024/02/19 08:51:22;;;;;;;8.83;2.77;;;11.40;99.90;;;;;;5072974;28;20167;-67
2024/02/19 08:53:47;;;;;;;7.47;2.63;;;11.30;99.90;;;;;;5073224;28;20411;-67
2024/02/19 08:56:13;;;;;;;6.77;2.63;;;11.50;99.90;;;;;;5073005;28;20460;-67
2024/02/19 08:58:38;;;;;;;13.20;3.27;;;11.60;99.90;;;;;;5073224;28;20166;-67
2024/02/19 09:01:10;;;;;;;14.63;4.10;;;11.70;99.90;;;;;;5072885;28;20174;-67
2024/02/19 09:03:37;;;;;;;8.03;3.13;;;11.80;99.90;;;;;;5073070;28;20162;-67
2024/02/19 09:06:03;;;;;;;7.40;3.60;;;11.80;99.90;;;;;;5073044;28;20721;-67
2024/02/19 09:08:29;;;;;;;14.03;3.93;;;11.90;99.90;;;;;;5072456;28;20546;-67
2024/02/19 09:10:54;;;;;;;13.40;3.93;;;12.10;99.90;;;;;;5072651;28;20503;-67
2024/02/19 09:13:20;;;;;;;9.57;2.90;;;12.00;99.90;;;;;;5070378;28;20185;-67
2024/02/19 09:15:45;;;;;;;5.47;3.30;;;11.80;99.90;;;;;;5068866;28;20206;-68
2024/02/19 09:18:11;;;;;;;6.97;3.37;;;11.70;99.90;;;;;;5072568;28;20657;-67
2024/02/19 09:20:37;;;;;;;8.67;3.80;;;11.80;99.90;;;;;;5072126;28;20181;-67
2024/02/19 09:23:03;;;;;;;4.53;4.13;;;11.80;99.90;;;;;;5072825;28;20842;-67
2024/02/19 09:25:29;;;;;;;5.47;3.70;;;11.90;99.90;;;;;;5069944;28;20265;-67
2024/02/19 09:27:55;;;;;;;15.30;5.20;;;11.80;99.90;;;;;;5072125;28;20277;-67
2024/02/19 09:30:20;;;;;;;14.40;5.17;;;11.90;99.90;;;;;;5072213;28;20846;-67
2024/02/19 09:32:46;;;;;;;17.83;4.40;;;12.00;99.90;;;;;;5072379;28;20182;-67
2024/02/19 09:35:11;;;;;;;8.27;4.50;;;12.30;99.90;;;;;;5072486;28;20163;-67
2024/02/19 09:37:37;;;;;;;15.37;5.40;;;12.50;99.90;;;;;;5071914;28;20202;-68
2024/02/19 09:40:08;;;;;;;7.27;4.37;;;12.50;99.90;;;;;;5072112;28;20164;-67
2024/02/19 09:42:35;;;;;;;11.47;4.60;;;12.70;99.90;;;;;;5072670;28;20219;-67
2024/02/19 09:45:01;;;;;;;10.93;5.10;;;12.80;99.90;;;;;;5072317;28;20405;-68
2024/02/19 09:47:27;;;;;;;10.93;4.90;;;13.00;99.90;;;;;;5072153;28;20763;-67
2024/02/19 09:49:53;;;;;;;15.87;6.20;;;13.60;99.90;;;;;;5071842;28;20401;-68
2024/02/19 09:52:24;;;;;;;16.87;4.10;;;14.30;99.90;;;;;;5072280;28;20427;-68
2024/02/19 09:54:50;;;;;;;12.40;5.33;;;14.80;99.90;;;;;;5072188;28;20400;-67
2024/02/19 09:57:18;;;;;;;10.10;4.60;;;15.80;99.90;;;;;;5072035;28;20455;-67
2024/02/19 09:59:45;;;;;;;8.70;4.67;;;16.40;99.90;;;;;;5072187;28;20259;-68
2024/02/19 10:02:11;;;;;;;10.00;4.40;;;16.20;99.90;;;;;;5071885;28;20400;-68
2024/02/19 10:04:38;;;;;;;11.30;5.10;;;16.20;99.90;;;;;;5072145;28;20785;-68
2024/02/19 10:07:03;;;;;;;7.37;4.27;;;16.10;99.90;;;;;;5067596;28;20449;-67
2024/02/19 10:09:29;;;;;;;7.30;4.20;;;16.10;99.90;;;;;;5057853;28;20479;-69
2024/02/19 10:11:58;;;;;;;6.40;4.50;;;16.80;99.90;;;;;;5070977;28;20670;-68
2024/02/19 10:14:24;;;;;;;8.83;4.90;;;17.30;99.90;;;;;;5071662;28;20557;-68
2024/02/19 10:16:54;;;;;;;16.83;5.10;;;18.30;99.90;;;;;;5071567;28;20456;-67
2024/02/19 10:19:20;;;;;;;5.90;4.27;;;18.80;99.90;;;;;;5071369;28;20404;-67
2024/02/19 10:21:50;;;;;;;12.73;4.47;;;18.40;99.90;;;;;;5071519;28;20767;-67
2024/02/19 10:24:17;;;;;;;7.73;3.80;;;17.20;99.90;;;;;;5071751;28;20162;-67
2024/02/19 10:26:44;;;;;;;8.57;3.60;;;16.70;99.90;;;;;;5071693;28;20431;-67
2024/02/19 10:29:10;;;;;;;9.30;4.40;;;16.20;99.90;;;;;;5066925;28;20503;-68
2024/02/19 10:31:35;;;;;;;10.67;4.03;;;15.60;99.90;;;;;;5046530;28;20433;-68
2024/02/19 10:34:01;;;;;;;13.33;5.10;;;15.10;99.90;;;;;;5046719;28;20265;-68
2024/02/19 10:36:27;;;;;;;8.87;4.30;;;14.80;99.90;;;;;;5055977;28;20214;-67
2024/02/19 10:38:52;;;;;;;9.53;5.07;;;14.40;99.90;;;;;;5063006;28;20166;-68
2024/02/19 10:41:20;;;;;;;7.87;5.40;;;14.40;99.90;;;;;;5073580;28;20886;-67
2024/02/19 10:43:46;;;;;;;10.77;5.30;;;14.30;99.90;;;;;;5075706;28;20543;-67
2024/02/19 10:46:19;;;;;;;9.83;4.70;;;14.20;99.90;;;;;;5069572;28;20467;-67
2024/02/19 10:48:49;;;;;;;7.77;4.73;;;14.00;99.90;;;;;;5075391;28;20211;-67
2024/02/19 10:51:17;;;;;;;13.90;4.57;;;13.70;99.90;;;;;;5074780;28;20412;-67
2024/02/19 10:53:44;;;;;;;7.20;4.33;;;13.70;99.90;;;;;;5074886;28;20409;-67
2024/02/19 10:56:17;;;;;;;12.03;4.73;;;13.70;99.90;;;;;;5075121;28;20456;-67
2024/02/19 10:58:53;;;;;;;8.50;4.47;;;13.70;99.90;;;;;;5075509;28;20404;-67
2024/02/19 11:01:20;;;;;;;4.43;3.40;;;13.60;99.90;;;;;;5075010;28;20408;-67
2024/02/19 11:03:46;;;;;;;7.37;4.97;;;13.70;99.90;;;;;;5075185;28;20571;-67
2024/02/19 11:06:13;;;;;;;7.50;4.13;;;13.80;99.90;;;;;;5075405;28;20512;-68
2024/02/19 11:08:50;;;;;;;12.03;3.87;;;14.00;99.90;;;;;;5068258;28;20178;-67
2024/02/19 11:11:18;;;;;;;10.07;4.60;;;14.30;99.90;;;;;;5074933;28;20921;-67
2024/02/19 11:13:47;;;;;;;15.50;4.97;;;14.50;99.90;;;;;;5075097;28;20407;-67
2024/02/19 11:16:18;;;;;;;8.63;4.67;;;14.80;99.90;;;;;;5075100;28;20480;-68
2024/02/19 11:18:44;;;;;;;7.20;4.37;;;15.10;99.90;;;;;;5074927;28;20767;-68
2024/02/19 11:21:10;;;;;;;12.43;4.30;;;15.40;99.90;;;;;;5074905;28;20408;-67
2024/02/19 11:23:36;;;;;;;12.37;4.47;;;15.60;99.90;;;;;;5075003;28;20528;-67
2024/02/19 11:26:02;;;;;;;11.10;5.37;;;15.80;99.90;;;;;;5074747;28;20442;-67
2024/02/19 11:28:32;;;;;;;8.67;4.13;;;15.80;99.90;;;;;;5069369;28;20174;-68
2024/02/19 11:31:02;;;;;;;7.17;4.10;;;15.80;99.90;;;;;;5062786;28;20197;-68
2024/02/19 11:33:28;;;;;;;6.77;4.10;;;15.90;99.90;;;;;;5072421;28;20771;-68
2024/02/19 11:35:57;;;;;;;10.23;5.07;;;15.90;99.90;;;;;;5073981;28;20466;-68
2024/02/19 11:38:26;;;;;;;15.37;4.80;;;15.70;99.90;;;;;;5074277;28;21108;-67
2024/02/19 11:40:53;;;;;;;14.10;4.97;;;15.30;99.90;;;;;;5074386;28;20809;-67
2024/02/19 11:43:19;;;;;;;6.70;4.03;;;14.80;99.90;;;;;;5074386;28;20396;-68
2024/02/19 11:45:45;;;;;;;5.87;4.73;;;14.50;99.90;;;;;;5074457;28;20435;-67
2024/02/19 11:48:11;;;;;;;8.53;4.43;;;14.60;99.90;;;;;;5074594;28;20459;-68
2024/02/19 11:50:36;;;;;;;10.50;4.47;;;14.60;99.90;;;;;;5074035;28;20543;-68
2024/02/19 11:53:04;;;;;;;6.90;3.80;;;14.70;99.90;;;;;;5073909;28;20421;-67
2024/02/19 11:55:30;;;;;;;9.90;4.63;;;14.70;99.90;;;;;;5074174;28;20526;-68
2024/02/19 11:58:00;;;;;;;6.70;4.73;;;14.60;99.90;;;;;;5074149;28;20552;-67
2024/02/19 12:00:25;;;;;;;15.63;4.37;;;14.70;99.90;;;;;;5073868;28;20770;-68
2024/02/19 12:02:53;;;;;;;10.30;4.20;;;14.70;99.90;;;;;;5074096;28;20491;-68
2024/02/19 12:05:19;;;;;;;8.00;3.83;;;14.70;99.90;;;;;;5074070;28;20653;-67
2024/02/19 12:07:45;;;;;;;7.87;3.63;;;14.60;99.90;;;;;;5073842;28;20508;-68
2024/02/19 12:10:12;;;;;;;5.60;3.30;;;14.30;99.90;;;;;;5073834;28;20177;-67
2024/02/19 12:12:38;;;;;;;11.20;4.13;;;14.30;99.90;;;;;;5074048;28;20216;-67
2024/02/19 12:15:09;;;;;;;10.60;3.87;;;13.90;99.90;;;;;;5073968;28;20428;-68
2024/02/19 12:17:34;;;;;;;6.30;3.70;;;13.90;99.90;;;;;;5074219;28;20502;-67
2024/02/19 12:20:00;;;;;;;12.37;4.27;;;13.80;99.90;;;;;;5073703;28;20400;-67
2024/02/19 12:22:25;;;;;;;4.20;3.00;;;13.60;99.90;;;;;;5073784;28;20622;-67
2024/02/19 12:24:52;;;;;;;5.40;2.90;;;13.60;99.90;;;;;;5073948;28;20171;-67
2024/02/19 12:27:19;;;;;;;4.90;2.93;;;13.90;99.90;;;;;;5073743;28;20209;-67
2024/02/19 12:29:45;;;;;;;5.03;3.80;;;14.10;99.90;;;;;;5073751;28;20397;-67
2024/02/19 12:32:10;;;;;;;6.13;3.17;;;14.30;99.90;;;;;;5073455;28;20407;-68
2024/02/19 12:34:39;;;;;;;8.33;3.57;;;14.60;99.90;;;;;;5068024;28;20178;-67
2024/02/19 12:37:05;;;;;;;4.37;2.70;;;14.70;99.90;;;;;;5071134;28;20205;-67
2024/02/19 12:39:31;;;;;;;2.67;2.47;;;14.80;99.90;;;;;;5073505;28;20783;-68